sensor_id;sensor_type;location;lat;lon;timestamp;temperature;humidity
36352;DHT22;22382;44.768;17.206;2023-11-18T00:01:33;3.20;99.90
36352;DHT22;22382;44.768;17.206;2023-11-18T00:04:01;3.20;99.90
36352;DHT22;22382;44.768;17.206;2023-11-18T00:06:28;3.20;99.90
36352;DHT22;22382;44.768;17.206;2023-11-18T00:08:55;3.10;99.90
36352;DHT22;22382;44.768;17.206;2023-11-18T00:11:22;3.10;99.90
36352;DHT22;22382;44.768;17.206;2023-11-18T00:13:51;3.10;99.90
36352;DHT22;22382;44.768;17.206;2023-11-18T00:16:18;3.10;99.90
36352;DHT22;22382;44.768;17.206;2023-11-18T00:18:46;3.00;99.90
36352;DHT22;22382;44.768;17.206;2023-11-18T00:21:13;3.10;99.90
36352;DHT22;22382;44.768;17.206;2023-11-18T00:23:40;3.00;99.90
36352;DHT22;22382;44.768;17.206;2023-11-18T00:26:07;3.00;99.90
36352;DHT22;22382;44.768;17.206;2023-11-18T00:28:35;3.00;99.90
36352;DHT22;22382;44.768;17.206;2023-11-18T00:31:02;3.00;99.90
36352;DHT22;22382;44.768;17.206;2023-11-18T00:33:32;3.00;99.90
36352;DHT22;22382;44.768;17.206;2023-11-18T00:36:00;2.90;99.90
36352;DHT22;22382;44.768;17.206;2023-11-18T00:38:27;3.00;99.90
36352;DHT22;22382;44.768;17.206;2023-11-18T00:40:54;3.00;99.90
36352;DHT22;22382;44.768;17.206;2023-11-18T00:43:21;3.00;99.90
36352;DHT22;22382;44.768;17.206;2023-11-18T00:45:49;3.00;99.90
36352;DHT22;22382;44.768;17.206;2023-11-18T00:48:16;3.10;99.90
36352;DHT22;22382;44.768;17.206;2023-11-18T00:50:43;3.10;99.90
36352;DHT22;22382;44.768;17.206;2023-11-18T00:53:10;3.10;99.90
36352;DHT22;22382;44.768;17.206;2023-11-18T00:55:38;3.20;99.90
36352;DHT22;22382;44.768;17.206;2023-11-18T00:58:05;3.10;99.90
36352;DHT22;22382;44.768;17.206;2023-11-18T01:00:32;3.10;99.90
36352;DHT22;22382;44.768;17.206;2023-11-18T01:03:01;3.10;99.90
36352;DHT22;22382;44.768;17.206;2023-11-18T01:05:29;3.10;99.90
36352;DHT22;22382;44.768;17.206;2023-11-18T01:07:58;3.10;99.90
36352;DHT22;22382;44.768;17.206;2023-11-18T01:10:25;3.10;99.90
36352;DHT22;22382;44.768;17.206;2023-11-18T01:12:54;3.20;99.90
36352;DHT22;22382;44.768;17.206;2023-11-18T01:15:23;3.30;99.90
36352;DHT22;22382;44.768;17.206;2023-11-18T01:17:50;3.40;99.90
36352;DHT22;22382;44.768;17.206;2023-11-18T01:20:18;3.40;99.90
36352;DHT22;22382;44.768;17.206;2023-11-18T01:22:49;3.40;99.90
36352;DHT22;22382;44.768;17.206;2023-11-18T01:25:16;3.40;99.90
36352;DHT22;22382;44.768;17.206;2023-11-18T01:27:46;3.40;99.90
36352;DHT22;22382;44.768;17.206;2023-11-18T01:30:14;3.40;99.90
36352;DHT22;22382;44.768;17.206;2023-11-18T01:32:42;3.40;99.90
36352;DHT22;22382;44.768;17.206;2023-11-18T01:35:10;3.30;99.90
36352;DHT22;22382;44.768;17.206;2023-11-18T01:37:40;3.30;99.90
36352;DHT22;22382;44.768;17.206;2023-11-18T01:40:07;3.20;99.90
36352;DHT22;22382;44.768;17.206;2023-11-18T01:42:35;3.20;99.90
36352;DHT22;22382;44.768;17.206;2023-11-18T01:45:04;3.10;99.90
36352;DHT22;22382;44.768;17.206;2023-11-18T01:47:34;3.10;99.90
36352;DHT22;22382;44.768;17.206;2023-11-18T01:50:04;3.10;99.90
36352;DHT22;22382;44.768;17.206;2023-11-18T01:52:33;3.10;99.90
36352;DHT22;22382;44.768;17.206;2023-11-18T01:55:02;3.10;99.90
36352;DHT22;22382;44.768;17.206;2023-11-18T01:57:34;3.10;99.90
36352;DHT22;22382;44.768;17.206;2023-11-18T02:00:01;3.00;99.90
36352;DHT22;22382;44.768;17.206;2023-11-18T02:02:33;3.00;99.90
36352;DHT22;22382;44.768;17.206;2023-11-18T02:05:02;2.90;99.90
36352;DHT22;22382;44.768;17.206;2023-11-18T02:07:29;2.90;99.90
36352;DHT22;22382;44.768;17.206;2023-11-18T02:09:56;2.90;99.90
36352;DHT22;22382;44.768;17.206;2023-11-18T02:12:46;2.80;99.90
36352;DHT22;22382;44.768;17.206;2023-11-18T02:15:18;2.70;99.90
36352;DHT22;22382;44.768;17.206;2023-11-18T02:17:49;2.70;99.90
36352;DHT22;22382;44.768;17.206;2023-11-18T02:20:17;2.70;99.90
36352;DHT22;22382;44.768;17.206;2023-11-18T02:22:48;2.70;99.90
36352;DHT22;22382;44.768;17.206;2023-11-18T02:25:16;2.60;99.90
36352;DHT22;22382;44.768;17.206;2023-11-18T02:27:45;2.60;99.90
36352;DHT22;22382;44.768;17.206;2023-11-18T02:30:14;2.70;99.90
36352;DHT22;22382;44.768;17.206;2023-11-18T02:32:48;2.70;99.90
36352;DHT22;22382;44.768;17.206;2023-11-18T02:35:24;2.70;99.90
36352;DHT22;22382;44.768;17.206;2023-11-18T02:37:55;2.70;99.90
36352;DHT22;22382;44.768;17.206;2023-11-18T02:40:32;2.70;99.90
36352;DHT22;22382;44.768;17.206;2023-11-18T02:43:00;2.60;99.90
36352;DHT22;22382;44.768;17.206;2023-11-18T02:45:28;2.60;99.90
36352;DHT22;22382;44.768;17.206;2023-11-18T02:47:56;2.60;99.90
36352;DHT22;22382;44.768;17.206;2023-11-18T02:50:25;2.50;99.90
36352;DHT22;22382;44.768;17.206;2023-11-18T02:52:53;2.50;99.90
36352;DHT22;22382;44.768;17.206;2023-11-18T02:55:21;2.50;99.90
36352;DHT22;22382;44.768;17.206;2023-11-18T02:57:50;2.40;99.90
36352;DHT22;22382;44.768;17.206;2023-11-18T03:00:21;2.40;99.90
36352;DHT22;22382;44.768;17.206;2023-11-18T03:02:51;2.40;99.90
36352;DHT22;22382;44.768;17.206;2023-11-18T03:05:20;2.40;99.90
36352;DHT22;22382;44.768;17.206;2023-11-18T03:07:48;2.40;99.90
36352;DHT22;22382;44.768;17.206;2023-11-18T03:10:21;2.40;99.90
36352;DHT22;22382;44.768;17.206;2023-11-18T03:12:50;2.40;99.90
36352;DHT22;22382;44.768;17.206;2023-11-18T03:15:19;2.40;99.90
36352;DHT22;22382;44.768;17.206;2023-11-18T03:17:47;2.30;99.90
36352;DHT22;22382;44.768;17.206;2023-11-18T03:20:16;2.30;99.90
36352;DHT22;22382;44.768;17.206;2023-11-18T03:22:45;2.30;99.90
36352;DHT22;22382;44.768;17.206;2023-11-18T03:25:13;2.30;99.90
36352;DHT22;22382;44.768;17.206;2023-11-18T03:27:42;2.20;99.90
36352;DHT22;22382;44.768;17.206;2023-11-18T03:30:10;2.20;99.90
36352;DHT22;22382;44.768;17.206;2023-11-18T03:32:39;2.20;99.90
36352;DHT22;22382;44.768;17.206;2023-11-18T03:35:09;2.20;99.90
36352;DHT22;22382;44.768;17.206;2023-11-18T03:37:38;2.20;99.90
36352;DHT22;22382;44.768;17.206;2023-11-18T03:40:12;2.30;99.90
36352;DHT22;22382;44.768;17.206;2023-11-18T03:42:44;2.20;99.90
36352;DHT22;22382;44.768;17.206;2023-11-18T03:45:14;2.20;99.90
36352;DHT22;22382;44.768;17.206;2023-11-18T03:47:45;2.20;99.90
36352;DHT22;22382;44.768;17.206;2023-11-18T03:50:14;2.10;99.90
36352;DHT22;22382;44.768;17.206;2023-11-18T03:52:41;2.10;99.90
36352;DHT22;22382;44.768;17.206;2023-11-18T03:55:09;2.10;99.90
36352;DHT22;22382;44.768;17.206;2023-11-18T03:57:36;2.10;99.90
36352;DHT22;22382;44.768;17.206;2023-11-18T04:00:04;2.10;99.90
36352;DHT22;22382;44.768;17.206;2023-11-18T04:02:31;2.10;99.90
36352;DHT22;22382;44.768;17.206;2023-11-18T04:04:59;2.10;99.90
36352;DHT22;22382;44.768;17.206;2023-11-18T04:07:26;2.10;99.90
36352;DHT22;22382;44.768;17.206;2023-11-18T04:09:55;2.10;99.90
36352;DHT22;22382;44.768;17.206;2023-11-18T04:12:22;2.10;99.90
36352;DHT22;22382;44.768;17.206;2023-11-18T04:14:51;2.10;99.90
36352;DHT22;22382;44.768;17.206;2023-11-18T04:17:18;2.10;99.90
36352;DHT22;22382;44.768;17.206;2023-11-18T04:19:45;2.10;99.90
36352;DHT22;22382;44.768;17.206;2023-11-18T04:22:12;2.00;99.90
36352;DHT22;22382;44.768;17.206;2023-11-18T04:24:40;2.00;99.90
36352;DHT22;22382;44.768;17.206;2023-11-18T04:27:07;2.00;99.90
36352;DHT22;22382;44.768;17.206;2023-11-18T04:29:34;2.00;99.90
36352;DHT22;22382;44.768;17.206;2023-11-18T04:32:03;2.00;99.90
36352;DHT22;22382;44.768;17.206;2023-11-18T04:34:30;1.90;99.90
36352;DHT22;22382;44.768;17.206;2023-11-18T04:36:59;1.90;99.90
36352;DHT22;22382;44.768;17.206;2023-11-18T04:39:27;1.90;99.90
36352;DHT22;22382;44.768;17.206;2023-11-18T04:41:55;1.80;99.90
36352;DHT22;22382;44.768;17.206;2023-11-18T04:44:23;1.80;99.90
36352;DHT22;22382;44.768;17.206;2023-11-18T04:46:50;1.70;99.90
36352;DHT22;22382;44.768;17.206;2023-11-18T04:49:18;1.70;99.90
36352;DHT22;22382;44.768;17.206;2023-11-18T04:51:46;1.70;99.90
36352;DHT22;22382;44.768;17.206;2023-11-18T04:54:13;1.70;99.90
36352;DHT22;22382;44.768;17.206;2023-11-18T04:56:41;1.70;99.90
36352;DHT22;22382;44.768;17.206;2023-11-18T04:59:08;1.70;99.90
36352;DHT22;22382;44.768;17.206;2023-11-18T05:01:36;1.70;99.90
36352;DHT22;22382;44.768;17.206;2023-11-18T05:04:04;1.60;99.90
36352;DHT22;22382;44.768;17.206;2023-11-18T05:06:33;1.60;99.90
36352;DHT22;22382;44.768;17.206;2023-11-18T05:09:00;1.50;99.90
36352;DHT22;22382;44.768;17.206;2023-11-18T05:11:27;1.60;99.90
36352;DHT22;22382;44.768;17.206;2023-11-18T05:13:54;1.50;99.90
36352;DHT22;22382;44.768;17.206;2023-11-18T05:16:23;1.60;99.90
36352;DHT22;22382;44.768;17.206;2023-11-18T05:18:50;1.60;99.90
36352;DHT22;22382;44.768;17.206;2023-11-18T05:21:17;1.60;99.90
36352;DHT22;22382;44.768;17.206;2023-11-18T05:23:45;1.60;99.90
36352;DHT22;22382;44.768;17.206;2023-11-18T05:26:13;1.50;99.90
36352;DHT22;22382;44.768;17.206;2023-11-18T05:28:41;1.50;99.90
36352;DHT22;22382;44.768;17.206;2023-11-18T05:31:11;1.60;99.90
36352;DHT22;22382;44.768;17.206;2023-11-18T05:33:38;1.60;99.90
36352;DHT22;22382;44.768;17.206;2023-11-18T05:36:06;1.60;99.90
36352;DHT22;22382;44.768;17.206;2023-11-18T05:38:33;1.60;99.90
36352;DHT22;22382;44.768;17.206;2023-11-18T05:41:04;1.70;99.90
36352;DHT22;22382;44.768;17.206;2023-11-18T05:43:33;1.70;99.90
36352;DHT22;22382;44.768;17.206;2023-11-18T05:46:07;1.70;99.90
36352;DHT22;22382;44.768;17.206;2023-11-18T05:48:48;1.70;99.90
36352;DHT22;22382;44.768;17.206;2023-11-18T05:51:24;1.60;99.90
36352;DHT22;22382;44.768;17.206;2023-11-18T05:53:52;1.60;99.90
36352;DHT22;22382;44.768;17.206;2023-11-18T05:56:20;1.70;99.90
36352;DHT22;22382;44.768;17.206;2023-11-18T05:58:51;1.80;99.90
36352;DHT22;22382;44.768;17.206;2023-11-18T06:01:21;1.80;99.90
36352;DHT22;22382;44.768;17.206;2023-11-18T06:03:48;1.80;99.90
36352;DHT22;22382;44.768;17.206;2023-11-18T06:06:16;1.90;99.90
36352;DHT22;22382;44.768;17.206;2023-11-18T06:08:49;2.00;99.90
36352;DHT22;22382;44.768;17.206;2023-11-18T06:11:17;2.10;99.90
36352;DHT22;22382;44.768;17.206;2023-11-18T06:13:48;2.20;99.90
36352;DHT22;22382;44.768;17.206;2023-11-18T06:16:20;2.20;99.90
36352;DHT22;22382;44.768;17.206;2023-11-18T06:18:55;2.10;99.90
36352;DHT22;22382;44.768;17.206;2023-11-18T06:21:25;2.10;99.90
36352;DHT22;22382;44.768;17.206;2023-11-18T06:23:58;2.10;99.90
36352;DHT22;22382;44.768;17.206;2023-11-18T06:26:26;2.00;99.90
36352;DHT22;22382;44.768;17.206;2023-11-18T06:28:54;2.00;99.90
36352;DHT22;22382;44.768;17.206;2023-11-18T06:31:22;2.00;99.90
36352;DHT22;22382;44.768;17.206;2023-11-18T06:33:51;1.90;99.90
36352;DHT22;22382;44.768;17.206;2023-11-18T06:36:20;2.00;99.90
36352;DHT22;22382;44.768;17.206;2023-11-18T06:38:53;2.10;99.90
36352;DHT22;22382;44.768;17.206;2023-11-18T06:41:22;2.10;99.90
36352;DHT22;22382;44.768;17.206;2023-11-18T06:44:01;2.10;99.90
36352;DHT22;22382;44.768;17.206;2023-11-18T06:46:36;2.20;99.90
36352;DHT22;22382;44.768;17.206;2023-11-18T06:49:07;2.30;99.90
36352;DHT22;22382;44.768;17.206;2023-11-18T06:51:38;2.30;99.90
36352;DHT22;22382;44.768;17.206;2023-11-18T06:54:05;2.40;99.90
36352;DHT22;22382;44.768;17.206;2023-11-18T06:56:38;2.40;99.90
36352;DHT22;22382;44.768;17.206;2023-11-18T06:59:06;2.60;99.90
36352;DHT22;22382;44.768;17.206;2023-11-18T07:01:34;2.60;99.90
36352;DHT22;22382;44.768;17.206;2023-11-18T07:04:03;2.70;99.90
36352;DHT22;22382;44.768;17.206;2023-11-18T07:06:30;2.70;99.90
36352;DHT22;22382;44.768;17.206;2023-11-18T07:08:58;2.70;99.90
36352;DHT22;22382;44.768;17.206;2023-11-18T07:11:27;2.80;99.90
36352;DHT22;22382;44.768;17.206;2023-11-18T07:13:54;2.90;99.90
36352;DHT22;22382;44.768;17.206;2023-11-18T07:16:24;2.90;99.90
36352;DHT22;22382;44.768;17.206;2023-11-18T07:18:52;3.10;99.90
36352;DHT22;22382;44.768;17.206;2023-11-18T07:21:20;3.20;99.90
36352;DHT22;22382;44.768;17.206;2023-11-18T07:23:47;3.20;99.90
36352;DHT22;22382;44.768;17.206;2023-11-18T07:26:15;3.30;99.90
36352;DHT22;22382;44.768;17.206;2023-11-18T07:28:42;3.40;99.90
36352;DHT22;22382;44.768;17.206;2023-11-18T07:31:11;3.40;99.90
36352;DHT22;22382;44.768;17.206;2023-11-18T07:33:39;3.40;99.90
36352;DHT22;22382;44.768;17.206;2023-11-18T07:36:10;3.40;99.90
36352;DHT22;22382;44.768;17.206;2023-11-18T07:38:39;3.50;99.90
36352;DHT22;22382;44.768;17.206;2023-11-18T07:41:06;3.60;99.90
36352;DHT22;22382;44.768;17.206;2023-11-18T07:43:35;3.80;99.90
36352;DHT22;22382;44.768;17.206;2023-11-18T07:46:04;3.90;99.90
36352;DHT22;22382;44.768;17.206;2023-11-18T07:48:35;4.00;99.90
36352;DHT22;22382;44.768;17.206;2023-11-18T07:51:02;4.10;99.90
36352;DHT22;22382;44.768;17.206;2023-11-18T07:53:30;4.20;99.90
36352;DHT22;22382;44.768;17.206;2023-11-18T07:55:59;4.30;99.90
36352;DHT22;22382;44.768;17.206;2023-11-18T07:58:28;4.30;99.90
36352;DHT22;22382;44.768;17.206;2023-11-18T08:00:55;4.40;99.90
36352;DHT22;22382;44.768;17.206;2023-11-18T08:03:23;4.60;99.90
36352;DHT22;22382;44.768;17.206;2023-11-18T08:05:50;4.60;99.90
36352;DHT22;22382;44.768;17.206;2023-11-18T08:08:17;4.70;99.90
36352;DHT22;22382;44.768;17.206;2023-11-18T08:10:45;4.80;99.90
36352;DHT22;22382;44.768;17.206;2023-11-18T08:13:12;4.90;99.90
36352;DHT22;22382;44.768;17.206;2023-11-18T08:15:43;4.90;99.90
36352;DHT22;22382;44.768;17.206;2023-11-18T08:18:13;5.10;99.90
36352;DHT22;22382;44.768;17.206;2023-11-18T08:20:40;5.20;99.90
36352;DHT22;22382;44.768;17.206;2023-11-18T08:23:08;5.40;99.90
36352;DHT22;22382;44.768;17.206;2023-11-18T08:25:36;5.50;99.90
36352;DHT22;22382;44.768;17.206;2023-11-18T08:28:04;5.50;99.90
36352;DHT22;22382;44.768;17.206;2023-11-18T08:30:31;5.70;99.90
36352;DHT22;22382;44.768;17.206;2023-11-18T08:33:01;5.80;99.90
36352;DHT22;22382;44.768;17.206;2023-11-18T08:35:32;6.00;99.90
36352;DHT22;22382;44.768;17.206;2023-11-18T08:37:59;6.10;99.90
36352;DHT22;22382;44.768;17.206;2023-11-18T08:40:28;6.20;99.90
36352;DHT22;22382;44.768;17.206;2023-11-18T08:42:56;6.50;99.90
36352;DHT22;22382;44.768;17.206;2023-11-18T08:45:25;6.60;99.90
36352;DHT22;22382;44.768;17.206;2023-11-18T08:47:55;6.70;99.90
36352;DHT22;22382;44.768;17.206;2023-11-18T08:50:24;6.90;99.90
36352;DHT22;22382;44.768;17.206;2023-11-18T08:52:53;7.00;99.90
36352;DHT22;22382;44.768;17.206;2023-11-18T08:55:27;7.20;99.90
36352;DHT22;22382;44.768;17.206;2023-11-18T08:58:12;7.40;99.90
36352;DHT22;22382;44.768;17.206;2023-11-18T09:03:37;7.60;99.90
36352;DHT22;22382;44.768;17.206;2023-11-18T09:06:10;7.70;99.90
36352;DHT22;22382;44.768;17.206;2023-11-18T09:08:55;7.80;99.90
36352;DHT22;22382;44.768;17.206;2023-11-18T09:11:25;7.80;97.00
36352;DHT22;22382;44.768;17.206;2023-11-18T09:13:59;7.90;96.60
36352;DHT22;22382;44.768;17.206;2023-11-18T09:16:28;7.90;95.80
36352;DHT22;22382;44.768;17.206;2023-11-18T09:18:57;8.00;95.00
36352;DHT22;22382;44.768;17.206;2023-11-18T09:21:26;8.00;93.30
36352;DHT22;22382;44.768;17.206;2023-11-18T09:23:57;7.80;92.70
36352;DHT22;22382;44.768;17.206;2023-11-18T09:26:24;8.00;92.40
36352;DHT22;22382;44.768;17.206;2023-11-18T09:28:53;7.90;92.60
36352;DHT22;22382;44.768;17.206;2023-11-18T09:31:21;8.00;92.80
36352;DHT22;22382;44.768;17.206;2023-11-18T09:33:48;8.10;91.90
36352;DHT22;22382;44.768;17.206;2023-11-18T09:36:24;8.10;91.50
36352;DHT22;22382;44.768;17.206;2023-11-18T09:38:56;8.10;91.70
36352;DHT22;22382;44.768;17.206;2023-11-18T09:41:24;8.10;91.20
36352;DHT22;22382;44.768;17.206;2023-11-18T09:43:58;8.20;91.60
36352;DHT22;22382;44.768;17.206;2023-11-18T09:46:29;8.20;91.50
36352;DHT22;22382;44.768;17.206;2023-11-18T09:51:43;8.40;91.90
36352;DHT22;22382;44.768;17.206;2023-11-18T09:54:29;8.40;91.20
36352;DHT22;22382;44.768;17.206;2023-11-18T09:57:02;8.50;90.10
36352;DHT22;22382;44.768;17.206;2023-11-18T09:59:42;8.50;89.80
36352;DHT22;22382;44.768;17.206;2023-11-18T10:02:13;8.50;89.60
36352;DHT22;22382;44.768;17.206;2023-11-18T10:04:41;8.50;88.80
36352;DHT22;22382;44.768;17.206;2023-11-18T10:07:09;8.60;88.80
36352;DHT22;22382;44.768;17.206;2023-11-18T10:09:38;8.70;89.10
36352;DHT22;22382;44.768;17.206;2023-11-18T10:12:09;8.50;85.40
36352;DHT22;22382;44.768;17.206;2023-11-18T10:14:42;8.50;87.50
36352;DHT22;22382;44.768;17.206;2023-11-18T10:17:10;8.70;87.10
36352;DHT22;22382;44.768;17.206;2023-11-18T10:19:57;8.70;85.70
36352;DHT22;22382;44.768;17.206;2023-11-18T10:22:39;8.70;87.60
36352;DHT22;22382;44.768;17.206;2023-11-18T10:25:08;8.80;87.80
36352;DHT22;22382;44.768;17.206;2023-11-18T10:27:35;9.10;87.80
36352;DHT22;22382;44.768;17.206;2023-11-18T10:30:04;9.10;87.30
36352;DHT22;22382;44.768;17.206;2023-11-18T10:32:32;9.10;84.70
36352;DHT22;22382;44.768;17.206;2023-11-18T10:35:06;9.00;84.40
36352;DHT22;22382;44.768;17.206;2023-11-18T10:37:49;9.00;85.30
36352;DHT22;22382;44.768;17.206;2023-11-18T10:40:16;9.10;85.40
36352;DHT22;22382;44.768;17.206;2023-11-18T10:42:45;9.00;84.60
36352;DHT22;22382;44.768;17.206;2023-11-18T10:45:23;8.80;81.90
36352;DHT22;22382;44.768;17.206;2023-11-18T10:47:54;8.90;84.40
36352;DHT22;22382;44.768;17.206;2023-11-18T10:50:25;9.10;81.90
36352;DHT22;22382;44.768;17.206;2023-11-18T10:53:02;9.10;82.40
36352;DHT22;22382;44.768;17.206;2023-11-18T10:55:38;9.10;83.60
36352;DHT22;22382;44.768;17.206;2023-11-18T10:58:07;8.90;80.30
36352;DHT22;22382;44.768;17.206;2023-11-18T11:00:47;9.00;82.00
36352;DHT22;22382;44.768;17.206;2023-11-18T11:03:19;9.10;82.30
36352;DHT22;22382;44.768;17.206;2023-11-18T11:05:46;9.00;80.80
36352;DHT22;22382;44.768;17.206;2023-11-18T11:08:17;9.00;83.10
36352;DHT22;22382;44.768;17.206;2023-11-18T11:10:59;9.10;82.40
36352;DHT22;22382;44.768;17.206;2023-11-18T11:13:31;9.10;81.50
36352;DHT22;22382;44.768;17.206;2023-11-18T11:16:00;9.20;82.10
36352;DHT22;22382;44.768;17.206;2023-11-18T11:18:31;9.40;81.20
36352;DHT22;22382;44.768;17.206;2023-11-18T11:21:13;9.30;79.10
36352;DHT22;22382;44.768;17.206;2023-11-18T11:24:00;9.30;80.20
36352;DHT22;22382;44.768;17.206;2023-11-18T11:29:27;9.40;80.30
36352;DHT22;22382;44.768;17.206;2023-11-18T11:32:35;9.40;78.60
36352;DHT22;22382;44.768;17.206;2023-11-18T11:35:26;9.50;79.10
36352;DHT22;22382;44.768;17.206;2023-11-18T11:37:56;9.40;78.10
36352;DHT22;22382;44.768;17.206;2023-11-18T11:40:32;9.30;80.00
36352;DHT22;22382;44.768;17.206;2023-11-18T11:43:02;9.50;81.10
36352;DHT22;22382;44.768;17.206;2023-11-18T11:45:32;9.60;79.90
36352;DHT22;22382;44.768;17.206;2023-11-18T11:48:04;9.60;80.50
36352;DHT22;22382;44.768;17.206;2023-11-18T11:53:34;9.60;80.50
36352;DHT22;22382;44.768;17.206;2023-11-18T11:56:06;9.40;80.30
36352;DHT22;22382;44.768;17.206;2023-11-18T11:58:35;9.40;80.10
36352;DHT22;22382;44.768;17.206;2023-11-18T12:01:28;9.40;81.70
36352;DHT22;22382;44.768;17.206;2023-11-18T12:04:09;9.40;81.90
36352;DHT22;22382;44.768;17.206;2023-11-18T12:06:48;9.60;82.70
36352;DHT22;22382;44.768;17.206;2023-11-18T12:09:30;9.60;81.00
36352;DHT22;22382;44.768;17.206;2023-11-18T12:12:00;9.60;80.30
36352;DHT22;22382;44.768;17.206;2023-11-18T12:14:29;9.50;79.20
36352;DHT22;22382;44.768;17.206;2023-11-18T12:17:08;9.40;78.10
36352;DHT22;22382;44.768;17.206;2023-11-18T12:19:39;9.50;80.40
36352;DHT22;22382;44.768;17.206;2023-11-18T12:22:20;9.50;80.10
36352;DHT22;22382;44.768;17.206;2023-11-18T12:35:23;9.80;81.20
36352;DHT22;22382;44.768;17.206;2023-11-18T12:40:57;9.80;80.60
36352;DHT22;22382;44.768;17.206;2023-11-18T12:46:25;9.80;79.50
36352;DHT22;22382;44.768;17.206;2023-11-18T12:49:03;9.90;81.30
36352;DHT22;22382;44.768;17.206;2023-11-18T12:51:31;10.00;80.00
36352;DHT22;22382;44.768;17.206;2023-11-18T12:54:01;10.00;81.50
36352;DHT22;22382;44.768;17.206;2023-11-18T12:56:30;10.10;81.00
36352;DHT22;22382;44.768;17.206;2023-11-18T12:58:57;10.10;77.50
36352;DHT22;22382;44.768;17.206;2023-11-18T13:01:26;10.00;77.40
36352;DHT22;22382;44.768;17.206;2023-11-18T13:03:54;10.00;77.70
36352;DHT22;22382;44.768;17.206;2023-11-18T13:06:22;10.00;78.10
36352;DHT22;22382;44.768;17.206;2023-11-18T13:08:55;10.10;79.00
36352;DHT22;22382;44.768;17.206;2023-11-18T13:11:23;10.10;77.50
36352;DHT22;22382;44.768;17.206;2023-11-18T13:13:53;10.10;77.10
36352;DHT22;22382;44.768;17.206;2023-11-18T13:16:21;10.00;76.50
36352;DHT22;22382;44.768;17.206;2023-11-18T13:18:48;10.10;77.30
36352;DHT22;22382;44.768;17.206;2023-11-18T13:21:18;10.00;78.00
36352;DHT22;22382;44.768;17.206;2023-11-18T13:23:46;10.00;77.40
36352;DHT22;22382;44.768;17.206;2023-11-18T13:26:15;10.00;76.80
36352;DHT22;22382;44.768;17.206;2023-11-18T13:28:42;10.00;77.60
36352;DHT22;22382;44.768;17.206;2023-11-18T13:31:13;10.10;78.80
36352;DHT22;22382;44.768;17.206;2023-11-18T13:33:43;10.00;76.90
36352;DHT22;22382;44.768;17.206;2023-11-18T13:36:11;10.00;78.40
36352;DHT22;22382;44.768;17.206;2023-11-18T13:38:39;10.00;80.20
36352;DHT22;22382;44.768;17.206;2023-11-18T13:41:08;10.00;77.40
36352;DHT22;22382;44.768;17.206;2023-11-18T13:43:46;10.00;77.50
36352;DHT22;22382;44.768;17.206;2023-11-18T13:46:19;9.90;77.70
36352;DHT22;22382;44.768;17.206;2023-11-18T13:48:48;9.80;78.20
36352;DHT22;22382;44.768;17.206;2023-11-18T13:51:16;9.80;78.70
36352;DHT22;22382;44.768;17.206;2023-11-18T13:53:47;9.80;79.40
36352;DHT22;22382;44.768;17.206;2023-11-18T13:56:15;9.80;78.90
36352;DHT22;22382;44.768;17.206;2023-11-18T13:58:43;9.80;78.50
36352;DHT22;22382;44.768;17.206;2023-11-18T14:01:13;9.60;78.70
36352;DHT22;22382;44.768;17.206;2023-11-18T14:03:40;9.50;77.90
36352;DHT22;22382;44.768;17.206;2023-11-18T14:06:10;9.60;78.00
36352;DHT22;22382;44.768;17.206;2023-11-18T14:08:38;9.50;77.90
36352;DHT22;22382;44.768;17.206;2023-11-18T14:11:07;9.40;77.50
36352;DHT22;22382;44.768;17.206;2023-11-18T14:13:43;9.40;79.10
36352;DHT22;22382;44.768;17.206;2023-11-18T14:16:11;9.30;78.70
36352;DHT22;22382;44.768;17.206;2023-11-18T14:18:40;9.30;78.50
36352;DHT22;22382;44.768;17.206;2023-11-18T14:21:09;9.20;78.20
36352;DHT22;22382;44.768;17.206;2023-11-18T14:23:36;9.10;79.50
36352;DHT22;22382;44.768;17.206;2023-11-18T14:26:05;9.10;78.60
36352;DHT22;22382;44.768;17.206;2023-11-18T14:28:34;9.00;78.40
36352;DHT22;22382;44.768;17.206;2023-11-18T14:31:02;9.00;79.20
36352;DHT22;22382;44.768;17.206;2023-11-18T14:33:35;8.90;80.50
36352;DHT22;22382;44.768;17.206;2023-11-18T14:36:03;8.90;80.40
36352;DHT22;22382;44.768;17.206;2023-11-18T14:38:33;8.90;81.40
36352;DHT22;22382;44.768;17.206;2023-11-18T14:41:01;8.80;82.40
36352;DHT22;22382;44.768;17.206;2023-11-18T14:43:30;8.70;82.10
36352;DHT22;22382;44.768;17.206;2023-11-18T14:45:58;8.60;81.60
36352;DHT22;22382;44.768;17.206;2023-11-18T14:48:26;8.60;83.30
36352;DHT22;22382;44.768;17.206;2023-11-18T14:50:53;8.50;84.40
36352;DHT22;22382;44.768;17.206;2023-11-18T14:53:23;8.40;85.80
36352;DHT22;22382;44.768;17.206;2023-11-18T14:55:51;8.30;87.20
36352;DHT22;22382;44.768;17.206;2023-11-18T14:58:19;8.20;87.30
36352;DHT22;22382;44.768;17.206;2023-11-18T15:00:46;8.10;88.30
36352;DHT22;22382;44.768;17.206;2023-11-18T15:03:15;8.00;89.90
36352;DHT22;22382;44.768;17.206;2023-11-18T15:05:42;7.90;90.40
36352;DHT22;22382;44.768;17.206;2023-11-18T15:08:11;7.70;90.50
36352;DHT22;22382;44.768;17.206;2023-11-18T15:10:40;7.70;91.50
36352;DHT22;22382;44.768;17.206;2023-11-18T15:13:09;7.60;91.90
36352;DHT22;22382;44.768;17.206;2023-11-18T15:15:44;7.50;91.90
36352;DHT22;22382;44.768;17.206;2023-11-18T15:18:14;7.40;92.20
36352;DHT22;22382;44.768;17.206;2023-11-18T15:20:44;7.30;92.80
36352;DHT22;22382;44.768;17.206;2023-11-18T15:23:15;7.10;93.20
36352;DHT22;22382;44.768;17.206;2023-11-18T15:25:44;7.00;93.90
36352;DHT22;22382;44.768;17.206;2023-11-18T15:28:11;6.90;94.50
36352;DHT22;22382;44.768;17.206;2023-11-18T15:30:40;6.90;95.00
36352;DHT22;22382;44.768;17.206;2023-11-18T15:33:07;6.80;95.40
36352;DHT22;22382;44.768;17.206;2023-11-18T15:35:38;6.70;96.00
36352;DHT22;22382;44.768;17.206;2023-11-18T15:38:08;6.60;96.70
36352;DHT22;22382;44.768;17.206;2023-11-18T15:40:36;6.40;97.80
36352;DHT22;22382;44.768;17.206;2023-11-18T15:43:04;6.30;98.50
36352;DHT22;22382;44.768;17.206;2023-11-18T15:45:34;6.20;99.50
36352;DHT22;22382;44.768;17.206;2023-11-18T15:48:02;6.20;99.90
36352;DHT22;22382;44.768;17.206;2023-11-18T15:50:32;6.00;99.90
36352;DHT22;22382;44.768;17.206;2023-11-18T15:53:05;5.90;99.90
36352;DHT22;22382;44.768;17.206;2023-11-18T15:55:35;5.90;99.90
36352;DHT22;22382;44.768;17.206;2023-11-18T15:58:05;5.80;99.90
36352;DHT22;22382;44.768;17.206;2023-11-18T16:00:32;5.70;99.90
36352;DHT22;22382;44.768;17.206;2023-11-18T16:03:04;5.70;99.90
36352;DHT22;22382;44.768;17.206;2023-11-18T16:05:36;5.60;99.90
36352;DHT22;22382;44.768;17.206;2023-11-18T16:08:04;5.50;99.90
36352;DHT22;22382;44.768;17.206;2023-11-18T16:10:34;5.40;99.90
36352;DHT22;22382;44.768;17.206;2023-11-18T16:13:01;5.30;99.90
36352;DHT22;22382;44.768;17.206;2023-11-18T16:15:30;5.30;99.90